Latest Coastal Weather Observations for Williamtown

IDN60701

Issued at 1:32 am EST Sunday 28 May 2017 (issued every 10 minutes, with the page automatically refreshed every 10 minutes)

About coastal observations | Map of coastal stations | Coastal observations for NSW | Marine services | Other Formats
Station Details ID: 061078 Name: WILLIAMTOWN RAAF Lat: -32.79 Lon: 151.84 Height: 7.5 m
Data from the previous 72 hours. | See also: Recent months at Williamtown
Date/Time
EST
Temp
°C
Wind Pressure Rain since
9am
mm
Weather Cloud Vis
km
Sea
Height
m
Swell
Dir  Spd
kts
Gust
kts
hPa Trend Height
m
Period
s
Dir
28/01:30am 8.7 WNW 4 5 1015.7 - 0.0 - Partly cloudy - - - - -
28/01:09am 8.8 WNW 3 4 1015.8 - 0.0 - Partly cloudy - - - - -
28/01:00am 8.7 NW 2 5 1015.9 - 0.0 - Partly cloudy - - - - -
28/12:30am 8.8 CALM 0 0 1016.1 - 0.0 - Partly cloudy 0.1 - - - -
28/12:08am 9.5 CALM 0 0 1016.4 - 0.0 - Partly cloudy - - - - -
28/12:00am 9.6 CALM 0 0 1016.5 F 0.0 - Partly cloudy 10 - - - -
 
Date/Time
EST
Temp
°C
Wind Pressure Rain since
9am
mm
Weather Cloud Vis
km
Sea
Height
m
Swell
Dir  Spd
kts
Gust
kts
hPa Trend Height
m
Period
s
Dir
27/11:49pm 10.0 CALM 0 0 1016.6 - 0.0 - Partly cloudy - - - - -
27/11:30pm 9.4 CALM 0 0 1016.8 - 0.0 - - 8 - - - -
27/11:00pm 10.1 CALM 0 0 1017.2 - 0.0 - - 0.2 - - - -
27/10:30pm 12.0 CALM 0 0 1017.5 - 0.0 - - 0.2 - - - -
27/10:00pm 12.2 CALM 0 3 1017.7 - 0.0 - - 2 - - - -
27/09:37pm 12.0 NW 2 4 1017.9 - 0.0 - - 3 - - - -
27/09:30pm 12.1 CALM 0 2 1017.9 - 0.0 - - 10 - - - -
27/09:21pm 12.2 NW 1 4 1017.9 - 0.0 - - 10 - - - -
27/09:00pm 12.8 NNE 2 4 1018.0 F 0.0 - - 4 - - - -
27/08:30pm 13.2 NE 3 4 1018.0 - 0.0 - - 10 - - - -
27/08:00pm 14.2 NNE 5 5 1018.1 - 0.0 - - 10 - - - -
27/07:30pm 15.0 NE 3 4 1018.2 - 0.0 - - 10 - - - -
27/07:00pm 14.8 NE 3 4 1018.2 - 0.0 - - 10 - - - -
27/06:30pm 15.5 ENE 4 5 1018.2 - 0.0 - - 10 - - - -
27/06:00pm 15.9 ENE 5 6 1017.9 F 0.0 - - 10 - - - -
27/05:30pm 16.7 NE 3 4 1017.9 - 0.0 - - 10 - - - -
27/05:00pm 17.6 E 4 5 1017.7 - 0.0 - - 10 - - - -
27/04:30pm 18.2 ESE 5 5 1017.7 - 0.0 - - 10 - - - -
27/04:00pm 18.7 SE 6 7 1017.7 - 0.0 - - 10 - - - -
27/03:30pm 20.3 N 2 4 1017.9 - 0.0 - - 10 - - - -
27/03:00pm 20.4 NNW 2 4 1017.9 F 0.0 - - 10 - - - -
27/02:30pm 20.0 NE 4 6 1018.0 - 0.0 - - 10 - - - -
27/02:00pm 19.8 NNW 5 6 1018.2 - 0.0 - - 10 - - - -
27/01:30pm 19.3 N 5 7 1018.6 - 0.0 - - 10 - - - -
27/01:00pm 18.8 NNW 5 9 1019.0 - 0.0 - - 10 - - - -
27/12:30pm 18.3 NW 6 8 1019.5 - 0.0 - - 10 - - - -
27/12:00pm 18.1 NNW 5 7 1020.0 F 0.0 - - 10 - - - -
27/11:30am 17.7 WSW 5 6 1020.6 - 0.0 - - 10 - - - -
27/11:00am 16.8 NW 6 7 1021.3 - 0.0 - - 10 - - - -
27/10:30am 15.3 NW 7 8 1021.8 - 0.0 - - 10 - - - -
27/10:00am 14.3 NW 7 9 1022.1 - 0.0 - - - - - - -
27/09:30am 13.2 WNW 8 9 1022.2 - 0.0 - - - - - - -
27/09:00am 11.6 WNW 6 7 1022.2 F 0.0 - - - - - - -
27/08:39am 10.5 WNW 7 8 1022.3 - 0.0 - Partly cloudy - - - - -
27/08:30am 10.3 WNW 6 7 1022.4 - 0.0 - Partly cloudy - - - - -
27/08:03am 9.1 NW 5 6 1022.3 - 0.0 - Partly cloudy - - - - -
27/08:00am 9.1 NW 5 5 1022.3 - 0.0 - Partly cloudy - - - - -
27/07:30am 8.6 WNW 4 5 1022.3 - 0.0 - - 10 - - - -
27/07:00am 7.6 WNW 6 7 1022.1 - 0.0 - - - - - - -
27/06:30am 8.2 NW 6 8 1021.7 - 0.0 - - 10 - - - -
27/06:00am 9.0 W 7 8 1021.5 S 0.0 - - 10 - - - -
27/05:30am 8.9 WSW 7 8 1021.0 - 0.0 - - 10 - - - -
27/05:00am 8.0 WSW 4 5 1020.9 - 0.0 - - - - - - -
27/04:30am 8.1 WSW 2 6 1020.8 - 0.0 - - 10 - - - -
27/04:00am 8.3 WSW 6 7 1020.7 - 0.0 - - 10 - - - -
27/03:30am 8.0 WSW 4 5 1021.0 - 0.0 - - - - - - -
27/03:00am 8.1 WSW 5 6 1021.0 S 0.0 - - 10 - - - -
27/02:30am 7.4 WSW 3 4 1021.4 - 0.0 - - - - - - -
27/02:00am 8.6 WSW 1 4 1021.4 - 0.0 - - - - - - -
27/01:30am 8.5 CALM 0 0 1021.6 - 0.0 - - - - - - -
27/01:00am 9.0 CALM 0 0 1021.7 - 0.0 - - - - - - -
27/12:30am 9.1 WSW 4 5 1021.7 - 0.0 - - 10 - - - -
27/12:00am 8.9 WSW 5 5 1021.8 R 0.0 - - - - - - -
 
Date/Time
EST
Temp
°C
Wind Pressure Rain since
9am
mm
Weather Cloud Vis
km
Sea
Height
m
Swell
Dir  Spd
kts
Gust
kts
hPa Trend Height
m
Period
s
Dir
26/11:30pm 9.8 WSW 6 7 1021.9 - 0.0 - - 10 - - - -
26/11:00pm 8.7 WSW 3 5 1022.0 - 0.0 - - - - - - -
26/10:30pm 9.8 WSW 1 4 1022.0 - 0.0 - - - - - - -
26/10:00pm 9.6 WSW 1 5 1022.1 - 0.0 - - - - - - -
26/09:30pm 9.7 WSW 5 5 1022.0 - 0.0 - - - - - - -
26/09:00pm 9.7 CALM 0 0 1021.8 R 0.0 - - - - - - -
26/08:30pm 9.8 CALM 0 3 1021.7 - 0.0 - - - - - - -
26/08:00pm 10.3 WSW 1 4 1021.6 - 0.0 - - - - - - -
26/07:30pm 11.0 CALM 0 0 1021.5 - 0.0 - - - - - - -
26/07:00pm 11.6 CALM 0 2 1021.0 - 0.0 - - - - - - -
26/06:30pm 12.7 WSW 2 5 1020.7 - 0.0 - - 10 - - - -
26/06:00pm 13.5 CALM 0 0 1020.6 R 0.0 - - 10 - - - -
26/05:30pm 14.2 S 5 5 1020.3 - 0.0 - - 10 - - - -
26/05:00pm 15.6 S 5 6 1020.1 - 0.0 - - 10 - - - -
26/04:30pm 16.9 SSE 7 8 1019.9 - 0.0 - - 10 - - - -
26/04:00pm 17.8 SSE 7 10 1019.8 - 0.0 - Mostly clear 10 - - - -
26/03:30pm 18.2 SSE 9 10 1019.6 - 0.0 - Mostly clear 10 - - - -
26/03:00pm 18.3 SSE 8 10 1019.4 R 0.0 - Mostly clear 10 - - - -
26/02:30pm 18.8 SSE 6 8 1019.4 - 0.0 - Mostly clear 10 - - - -
26/02:00pm 19.0 SSE 8 10 1019.5 - 0.0 - Mostly clear 10 - - - -
26/01:30pm 19.1 WSW 5 8 1019.6 - 0.0 - Mostly clear 10 - - - -
26/01:00pm 18.7 SW 6 9 1019.8 - 0.0 - Mostly clear 10 - - - -
26/12:30pm 18.5 S 5 9 1019.9 - 0.0 - Mostly clear 10 - - - -
26/12:00pm 18.3 S 4 8 1020.4 R 0.0 - Mostly clear 10 - - - -
26/11:30am 17.7 W 4 8 1020.8 - 0.0 - - 10 - - - -
26/11:00am 16.9 WSW 5 8 1021.3 - 0.0 - - 10 - - - -
26/10:30am 15.8 W 6 8 1021.7 - 0.0 - - 10 - - - -
26/10:00am 14.7 WNW 6 8 1021.9 - 0.0 - - 10 - - - -
26/09:30am 13.2 NW 8 10 1021.9 - 0.0 - - 10 - - - -
26/09:00am 12.2 NW 9 13 1021.7 R 0.0 - - 10 - - - -
26/08:30am 11.1 NW 8 10 1021.7 - 0.0 - - 10 - - - -
26/08:00am 9.6 W 6 9 1021.4 - 0.0 - Mostly clear 10 - - - -
26/07:30am 8.7 WNW 5 8 1020.9 - 0.0 - Mostly clear 10 - - - -
26/07:00am 8.0 WNW 8 8 1020.6 - 0.0 - - 10 - - - -
26/06:30am 8.2 NW 8 10 1020.2 - 0.0 - - 10 - - - -
26/06:00am 7.3 NW 7 8 1020.0 R 0.0 - - 10 - - - -
26/05:30am 6.8 W 5 5 1019.6 - 0.0 - - - - - - -
26/05:00am 6.9 WNW 5 6 1019.4 - 0.0 - - - - - - -
26/04:30am 6.4 CALM 0 0 1019.2 - 0.0 - - - - - - -
26/04:00am 7.1 CALM 0 0 1019.1 - 0.0 - - - - - - -
26/03:30am 7.4 NW 4 5 1019.0 - 0.0 - - 10 - - - -
26/03:00am 6.3 CALM 0 0 1019.1 S 0.0 - - - - - - -
26/02:30am 7.7 CALM 0 0 1019.3 - 0.0 - - - - - - -
26/02:00am 8.3 CALM 0 2 1019.3 - 0.0 - - 10 - - - -
26/01:30am 8.1 NW 4 5 1019.4 - 0.0 - - 10 - - - -
26/01:00am 7.9 WNW 5 5 1019.4 - 0.0 - - - - - - -
26/12:30am 7.2 WNW 3 4 1019.7 - 0.0 - - - - - - -
26/12:00am 8.0 CALM 0 0 1019.8 F 0.0 - - - - - - -
 
Date/Time
EST
Temp
°C
Wind Pressure Rain since
9am
mm
Weather Cloud Vis
km
Sea
Height
m
Swell
Dir  Spd
kts
Gust
kts
hPa Trend Height
m
Period
s
Dir
25/11:30pm 9.2 CALM 0 0 1019.9 - 0.0 - - 10 - - - -
25/11:00pm 8.7 CALM 0 0 1020.0 - 0.0 - - - - - - -
25/10:30pm 9.3 CALM 0 0 1020.1 - 0.0 - - - - - - -
25/10:20pm 9.1 CALM 0 0 1020.2 - 0.0 - - 1 - - - -
25/10:00pm 9.0 CALM 0 0 1020.3 - 0.0 - - 10 - - - -
25/09:30pm 9.5 CALM 0 0 1020.3 - 0.0 - - 10 - - - -
25/09:00pm 10.0 CALM 0 0 1020.2 F 0.0 - - 10 - - - -
25/08:30pm 11.0 CALM 0 0 1020.3 - 0.0 - Mostly clear 10 - - - -
25/08:00pm 10.9 CALM 0 0 1020.2 - 0.0 - Mostly clear 10 - - - -
25/07:30pm 11.5 CALM 0 0 1020.2 - 0.0 - Mostly clear 10 - - - -
25/07:00pm 11.8 CALM 0 0 1020.0 - 0.0 - Mostly clear 10 - - - -
25/06:30pm 12.9 CALM 0 0 1019.7 - 0.0 - Mostly clear 10 - - - -
25/06:00pm 13.4 CALM 0 0 1019.5 F 0.0 - Mostly clear 10 - - - -
25/05:30pm 14.9 CALM 0 0 1019.4 - 0.0 - Mostly clear 10 - - - -
25/05:00pm 16.7 CALM 0 0 1019.2 - 0.0 - Mostly clear 10 - - - -
25/04:30pm 17.5 ESE 5 5 1019.0 - 0.0 - Mostly clear 10 - - - -
25/04:00pm 18.3 ESE 6 7 1019.0 - 0.0 - Mostly clear 10 - - - -
25/03:30pm 18.8 ESE 5 7 1018.9 - 0.0 - Mostly clear 10 - - - -
25/03:00pm 19.1 SSE 5 7 1018.7 R 0.0 - Mostly clear 10 - - - -
25/02:30pm 19.4 SSE 6 8 1018.8 - 0.0 - Mostly clear 10 - - - -
25/02:00pm 19.1 SE 7 9 1018.8 - 0.0 - Mostly clear 10 - - - -
25/01:30pm 18.4 SE 7 9 1019.0 - 0.0 - Mostly clear 10 - - - -
25/01:00pm 19.7 WSW 6 9 1019.3 - 0.0 - Mostly clear 10 - - - -
25/12:30pm 19.6 WSW 5 8 1019.5 - 0.0 - Mostly clear 10 - - - -
25/12:00pm 18.9 W 6 9 1019.9 R 0.0 - Mostly clear 10 - - - -
25/11:30am 18.6 W 7 11 1020.3 - 0.0 - Mostly clear 10 - - - -
25/11:00am 17.7 NW 8 12 1020.6 - 0.0 - Mostly clear 10 - - - -
25/10:30am 17.0 WNW 10 14 1020.8 - 0.0 - Mostly clear 10 - - - -
25/10:00am 15.7 WNW 12 15 1021.1 - 0.0 - Mostly clear 10 - - - -
25/09:30am 15.6 WNW 12 17 1021.3 - 0.0 - Mostly clear 10 - - - -
25/09:00am 14.3 WNW 11 15 1021.1 R 0.0 - Mostly clear 10 - - - -
25/08:30am 13.3 WNW 12 15 1021.0 - 0.0 - Mostly clear 10 - - - -
25/08:00am 12.0 WNW 10 12 1020.8 - 0.0 - Mostly clear 10 - - - -
25/07:30am 10.7 WNW 7 9 1020.6 - 0.0 - Mostly clear 10 - - - -
25/07:00am 9.8 WNW 8 9 1020.3 - 0.0 - Mostly clear 10 - - - -
25/06:30am 9.7 WNW 8 11 1019.8 - 0.0 - - 10 - - - -
25/06:00am 10.3 WNW 10 12 1019.7 R 0.0 - - 10 - - - -
25/05:30am 10.0 WNW 9 11 1019.3 - 0.0 - - 10 - - - -
25/05:00am 10.1 WNW 8 9 1019.2 - 0.0 - - 10 - - - -
25/04:30am 10.9 WNW 10 13 1018.9 - 0.0 - - 10 - - - -
25/04:00am 10.8 WNW 9 11 1018.6 - 0.0 - - 10 - - - -
25/03:30am 11.3 WNW 10 13 1018.4 - 0.0 - - 10 - - - -
25/03:00am 10.7 WNW 8 10 1018.4 R 0.0 - - 10 - - - -
25/02:30am 10.9 WNW 9 11 1018.4 - 0.0 - - 10 - - - -
25/02:00am 11.1 WNW 9 11 1018.5 - 0.0 - - 10 - - - -

Other Formats:

Comma delimited format used in spreadsheet applications
http://www.bom.gov.au/fwo/IDN60701/IDN60701.94776.axf

JavaScript Object Notation format (JSON) in row-major order
http://www.bom.gov.au/fwo/IDN60701/IDN60701.94776.json